Terminal Aerodrome Forecast
Issued by NWS

Home | Current Version | Previous Version | Graphics & Text | Print | Product List | Glossary On
Versions: 1 2 3 4 5 6 7 8 9 10 11 12 13 14 15
663
FTUS43 KIWX 201720
TAFSBN
TAF
KSBN 201720Z 2018/2118 25010KT P6SM FEW050 SCT200
     FM202100 31007KT P6SM SCT200
     FM210100 VRB03KT P6SM FEW030 SCT200
      TEMPO 2108/2112 4SM BR SCT010=

USA.gov is the U.S. government's official web portal to all federal, state and local government web resources and services.